createdAt,value
2023-04-03T00:04:43.167Z,8.2
2023-04-03T00:19:43.184Z,8.2
2023-04-03T00:34:43.077Z,8.3
2023-04-03T00:49:43.122Z,8.2
2023-04-03T01:04:43.088Z,8.2
2023-04-03T01:19:43.107Z,8.2
2023-04-03T01:34:43.042Z,8.1
2023-04-03T01:49:43.068Z,8
2023-04-03T02:04:43.013Z,8.1
2023-04-03T02:19:43.012Z,8.1
2023-04-03T02:34:42.943Z,8.2
2023-04-03T02:49:43.000Z,8.2
2023-04-03T03:04:42.993Z,8
2023-04-03T03:19:42.971Z,8
2023-04-03T03:34:42.914Z,8
2023-04-03T03:49:42.919Z,7.9
2023-04-03T04:04:42.855Z,7.9
2023-04-03T04:19:42.919Z,7.6
2023-04-03T04:34:42.859Z,7.6
2023-04-03T04:49:42.864Z,7.6
2023-04-03T05:04:42.839Z,7.6
2023-04-03T05:19:42.851Z,7.7
2023-04-03T05:34:42.793Z,7.7
2023-04-03T05:49:42.810Z,7.9
2023-04-03T06:04:42.879Z,8
2023-04-03T06:19:42.725Z,8.1
2023-04-03T06:34:42.756Z,8.1
2023-04-03T06:49:42.756Z,8.4
2023-04-03T07:04:42.746Z,9
2023-04-03T07:19:42.733Z,9.4
2023-04-03T07:34:42.654Z,9.2
2023-04-03T07:49:42.658Z,9.4
2023-04-03T08:04:42.676Z,9.5
2023-04-03T08:19:42.614Z,9.3
2023-04-03T08:34:42.573Z,9.3
2023-04-03T08:49:42.639Z,9.4
2023-04-03T09:04:42.571Z,9.7
2023-04-03T09:19:42.619Z,9.8
2023-04-03T09:34:42.539Z,9.9
2023-04-03T09:49:42.562Z,9.6
2023-04-03T10:04:42.568Z,9.4
2023-04-03T10:19:42.522Z,9.5
2023-04-03T10:34:43.504Z,9.6
2023-04-03T10:49:47.124Z,9.8
2023-04-03T11:04:42.450Z,9.5
2023-04-03T11:19:42.415Z,9.5
2023-04-03T11:34:42.398Z,10.1
2023-04-03T11:49:42.379Z,10.7
2023-04-03T12:04:42.425Z,10.9
2023-04-03T12:19:43.274Z,11.1
2023-04-03T12:34:42.325Z,11.1
2023-04-03T12:49:42.335Z,11.3
2023-04-03T13:04:42.287Z,11.4
2023-04-03T13:19:42.310Z,10.9
2023-04-03T13:34:42.268Z,10.6
2023-04-03T13:49:42.288Z,10.6
2023-04-03T14:04:42.298Z,10.6
2023-04-03T14:19:42.236Z,10.4
2023-04-03T14:34:42.168Z,10.1
2023-04-03T14:49:42.179Z,10.1
2023-04-03T15:04:42.153Z,10.3
2023-04-03T15:19:42.120Z,10.1
2023-04-03T15:34:42.107Z,10.1
2023-04-03T15:49:42.126Z,10.3
2023-04-03T16:04:42.085Z,10.5
2023-04-03T16:19:42.060Z,10.6
2023-04-03T16:34:42.764Z,10.8
2023-04-03T16:49:42.136Z,11.4
2023-04-03T17:04:42.007Z,11.4
2023-04-03T17:19:41.984Z,11.2
2023-04-03T17:34:41.959Z,11.3
2023-04-03T17:49:41.957Z,11.3
2023-04-03T18:04:41.883Z,11.2
2023-04-03T18:19:41.914Z,10.9
2023-04-03T18:34:41.861Z,10.6
2023-04-03T18:49:41.992Z,10.3
2023-04-03T19:04:41.836Z,10.1
2023-04-03T19:19:41.861Z,9.8
2023-04-03T19:34:41.796Z,9.5
2023-04-03T19:49:41.812Z,8.9
2023-04-03T20:04:41.826Z,8.5
2023-04-03T20:19:41.765Z,8.2
2023-04-03T20:34:42.786Z,8
2023-04-03T20:49:41.765Z,7.7
2023-04-03T21:04:41.698Z,7.4
2023-04-03T21:19:41.719Z,7.3
2023-04-03T21:34:41.658Z,7.2
2023-04-03T21:49:41.735Z,7
2023-04-03T22:04:41.648Z,6.9
2023-04-03T22:19:41.647Z,6.8
2023-04-03T22:34:41.604Z,6.6
2023-04-03T22:49:41.667Z,6.5
2023-04-03T23:04:41.702Z,6.5
2023-04-03T23:19:41.580Z,6.4
2023-04-03T23:34:41.559Z,6.3
2023-04-03T23:49:41.586Z,6.2
